Time;durP1;ratioP1;P1;durP2;ratioP2;P2;SDS_P1;SDS_P2;PMS_P1;PMS_P2;Temp;Humidity;BMP_temperature;BMP_pressure;BME280_temperature;BME280_humidity;BME280_pressure;Samples;Min_cycle;Max_cycle;Signal;HPM_P1;HPM_P2
2023/07/20 00:03:02;;;;;;;20.50;5.90;;;;;;;23.32;48.11;98104.00;67945;1274;1019496;-67
2023/07/20 00:06:05;;;;;;;21.20;6.20;;;;;;;23.24;48.40;98105.25;67974;1274;1016449;-65
2023/07/20 00:09:08;;;;;;;21.60;5.90;;;;;;;22.99;48.53;98101.13;67957;1274;1016147;-66
2023/07/20 00:12:11;;;;;;;21.50;6.30;;;;;;;22.79;48.82;98097.19;67986;1275;1016409;-65
2023/07/20 00:15:14;;;;;;;21.90;7.10;;;;;;;22.70;48.61;98095.08;68064;1274;1016214;-65
2023/07/20 00:18:16;;;;;;;20.80;7.40;;;;;;;22.89;48.42;98091.16;67980;1274;1016432;-65
2023/07/20 00:21:20;;;;;;;24.60;7.70;;;;;;;23.09;48.41;98087.83;68020;1274;1015718;-65
2023/07/20 00:24:23;;;;;;;23.30;7.60;;;;;;;23.15;48.43;98089.55;67989;1274;1016602;-65
2023/07/20 00:27:26;;;;;;;20.30;6.70;;;;;;;23.33;48.12;98085.91;68031;1274;1016677;-70
2023/07/20 00:30:29;;;;;;;24.70;7.70;;;;;;;23.36;48.17;98082.77;67981;1274;1016121;-66
2023/07/20 00:33:32;;;;;;;23.60;7.30;;;;;;;23.15;48.59;98078.20;68041;1274;1016344;-66
2023/07/20 00:36:35;;;;;;;21.90;6.70;;;;;;;23.10;48.93;98071.23;68003;1274;1016152;-70
2023/07/20 00:39:38;;;;;;;23.30;7.20;;;;;;;23.07;48.91;98068.02;67991;1274;1017095;-67
2023/07/20 00:42:41;;;;;;;21.00;6.90;;;;;;;23.02;48.96;98064.52;67968;1274;1016495;-65
2023/07/20 00:45:44;;;;;;;21.10;6.80;;;;;;;22.74;49.66;98072.71;68034;1274;1016072;-65
2023/07/20 00:48:47;;;;;;;20.40;6.90;;;;;;;22.59;50.22;98075.59;67988;1274;1016292;-69
2023/07/20 00:51:50;;;;;;;;;;;;;;;22.65;50.19;98075.54;68002;1274;1016354;-65
2023/07/20 00:54:56;;;;;;;24.00;6.90;;;;;;;22.73;49.84;98075.27;67926;1274;1016337;-65
2023/07/20 00:57:59;;;;;;;23.10;7.10;;;;;;;22.62;50.18;98075.41;68018;1274;1018288;-66
2023/07/20 01:01:01;;;;;;;23.00;7.10;;;;;;;22.58;49.95;98076.44;68032;1274;1016259;-66
2023/07/20 01:04:05;;;;;;;25.50;7.10;;;;;;;22.66;49.67;98079.66;68032;1274;1016278;-65
2023/07/20 01:07:08;;;;;;;23.90;7.50;;;;;;;22.78;49.54;98081.30;68032;1274;1016473;-69
2023/07/20 01:10:18;;;;;;;22.80;7.30;;;;;;;22.77;49.84;98081.17;68009;1274;1015958;-65
2023/07/20 01:13:21;;;;;;;19.10;6.40;;;;;;;22.72;50.16;98084.16;67956;1274;1016377;-66
2023/07/20 01:16:25;;;;;;;22.40;7.50;;;;;;;22.49;50.63;98084.15;67993;1274;1016402;-70
2023/07/20 01:19:28;;;;;;;21.80;7.40;;;;;;;22.28;51.56;98082.55;67972;1274;1018506;-65
2023/07/20 01:22:32;;;;;;;20.70;7.20;;;;;;;22.32;51.50;98074.63;68041;1274;1016227;-65
2023/07/20 01:25:36;;;;;;;21.60;7.10;;;;;;;22.47;51.18;98072.95;67972;1274;1018139;-65
2023/07/20 01:28:40;;;;;;;22.00;7.20;;;;;;;22.62;50.88;98081.55;67984;1274;1015990;-69
2023/07/20 01:31:43;;;;;;;24.10;8.00;;;;;;;22.69;50.65;98086.23;67946;1274;1016288;-65
2023/07/20 01:34:47;;;;;;;20.90;7.10;;;;;;;22.79;50.52;98090.45;67975;1274;1016272;-65
2023/07/20 01:37:50;;;;;;;23.40;8.10;;;;;;;22.81;50.44;98093.80;68009;1274;1016446;-65
2023/07/20 01:40:54;;;;;;;24.00;7.90;;;;;;;22.85;50.39;98097.95;67987;1274;1015743;-66
2023/07/20 01:43:57;;;;;;;24.10;8.20;;;;;;;22.78;50.71;98097.59;67961;1274;1016198;-69
2023/07/20 01:47:01;;;;;;;22.90;8.30;;;;;;;22.71;51.16;98096.90;68027;1274;1016358;-69
2023/07/20 01:50:04;;;;;;;21.80;7.60;;;;;;;22.84;51.28;98103.53;68008;1274;1016218;-65
2023/07/20 01:53:08;;;;;;;24.40;7.80;;;;;;;22.84;51.72;98101.89;67963;1274;1016393;-65
2023/07/20 01:56:12;;;;;;;24.70;8.00;;;;;;;22.93;51.82;98105.14;67996;1274;1016640;-66
2023/07/20 01:59:16;;;;;;;24.50;8.50;;;;;;;23.26;51.16;98101.56;67945;1274;1016216;-67
2023/07/20 02:02:18;;;;;;;22.40;7.70;;;;;;;23.27;51.65;98111.63;68008;1274;1017098;-65
2023/07/20 02:05:22;;;;;;;23.10;7.40;;;;;;;23.13;52.86;98109.57;67970;1274;1016326;-66
2023/07/20 02:08:24;;;;;;;;;;;;;;;22.87;53.02;98100.98;67934;1274;1016257;-66
2023/07/20 02:11:27;;;;;;;22.70;7.30;;;;;;;22.71;54.14;98144.52;67956;1274;1016340;-69
2023/07/20 02:14:31;;;;;;;21.80;6.40;;;;;;;22.48;53.63;98129.12;67915;1274;1016349;-65
2023/07/20 02:17:34;;;;;;;20.00;6.90;;;;;;;22.28;54.14;98160.27;67972;1274;1016212;-66
2023/07/20 02:20:37;;;;;;;23.10;7.20;;;;;;;22.18;54.41;98153.27;67975;1274;1016410;-69
2023/07/20 02:23:41;;;;;;;21.30;6.40;;;;;;;22.20;54.64;98160.81;68026;1274;1016598;-69
2023/07/20 02:26:44;;;;;;;21.50;6.30;;;;;;;22.45;53.31;98153.00;67924;1274;1016447;-66
2023/07/20 02:29:50;;;;;;;18.30;6.00;;;;;;;22.53;52.56;98145.58;68014;1274;1016411;-66
2023/07/20 02:32:52;;;;;;;18.90;5.50;;;;;;;22.46;53.69;98176.89;67977;1274;1016479;-66
2023/07/20 02:35:57;;;;;;;19.20;5.80;;;;;;;22.38;53.61;98175.15;67902;1274;1016314;-66
2023/07/20 02:39:02;;;;;;;20.60;6.00;;;;;;;22.39;54.55;98178.82;68014;1274;1016364;-68
2023/07/20 02:42:05;;;;;;;20.10;5.90;;;;;;;22.40;53.78;98189.80;68032;1274;1016479;-69
2023/07/20 02:45:08;;;;;;;16.30;5.20;;;;;;;22.35;52.37;98183.94;67974;1274;1016148;-69
2023/07/20 02:48:12;;;;;;;19.30;5.10;;;;;;;22.24;52.57;98196.34;67953;1274;1015911;-66
2023/07/20 02:51:16;;;;;;;21.50;5.00;;;;;;;22.17;52.48;98193.45;67975;1274;1016267;-66
2023/07/20 02:54:19;;;;;;;16.10;4.80;;;;;;;22.29;51.93;98185.39;67987;1274;1016428;-66
2023/07/20 02:57:22;;;;;;;17.50;5.10;;;;;;;22.27;52.13;98175.09;67955;1274;1016080;-67
2023/07/20 03:00:29;;;;;;;15.60;4.50;;;;;;;22.42;51.58;98172.58;67996;1274;1016507;-69
2023/07/20 03:03:31;;;;;;;;;;;;;;;22.59;51.44;98168.96;68036;1274;1016429;-69
2023/07/20 03:06:36;;;;;;;16.50;4.80;;;;;;;22.73;51.05;98172.83;67988;1274;1016259;-66
2023/07/20 03:09:39;;;;;;;15.70;4.60;;;;;;;22.77;51.08;98179.18;67963;1274;1016501;-69
2023/07/20 03:12:42;;;;;;;18.00;4.50;;;;;;;22.81;51.00;98178.36;67996;1274;1016175;-68
2023/07/20 03:15:45;;;;;;;15.90;4.80;;;;;;;23.02;50.76;98165.45;67958;1274;1017217;-65
2023/07/20 03:18:48;;;;;;;22.30;4.90;;;;;;;22.99;50.93;98161.86;67966;1274;1016260;-65
2023/07/20 03:21:51;;;;;;;17.40;5.00;;;;;;;22.93;51.17;98180.50;67973;1274;1016861;-66
2023/07/20 03:24:54;;;;;;;21.30;5.50;;;;;;;22.64;52.81;98219.52;67983;1274;1016366;-66
2023/07/20 03:27:57;;;;;;;19.70;6.00;;;;;;;22.27;54.83;98272.17;67974;1270;1016628;-64
2023/07/20 03:31:00;;;;;;;17.30;5.20;;;;;;;22.05;55.16;98278.77;68002;1272;1016401;-66
2023/07/20 03:34:03;;;;;;;18.80;4.80;;;;;;;22.07;55.52;98270.31;68050;1275;1015995;-64
2023/07/20 03:37:07;;;;;;;19.70;5.00;;;;;;;22.12;55.72;98272.45;68027;1275;1016422;-64
2023/07/20 03:40:10;;;;;;;19.20;5.10;;;;;;;22.24;55.06;98266.59;68021;1275;1016327;-63
2023/07/20 03:43:18;;;;;;;18.40;5.00;;;;;;;22.28;54.87;98281.02;68058;1275;1016118;-63
2023/07/20 03:46:21;;;;;;;17.20;4.70;;;;;;;22.27;55.30;98298.42;68024;1275;1016228;-64
2023/07/20 03:49:25;;;;;;;17.80;4.80;;;;;;;22.22;55.11;98279.14;68044;1275;1016413;-63
2023/07/20 03:52:28;;;;;;;18.00;4.70;;;;;;;22.14;55.33;98272.41;68044;1275;1016775;-64
2023/07/20 03:55:31;;;;;;;19.50;5.00;;;;;;;22.29;55.34;98273.67;68013;1275;1016468;-64
2023/07/20 03:58:35;;;;;;;18.40;4.70;;;;;;;22.47;54.93;98279.35;68023;1275;1016499;-63
2023/07/20 04:01:39;;;;;;;16.40;4.60;;;;;;;22.72;54.72;98290.96;67996;1275;1016511;-63
2023/07/20 04:04:43;;;;;;;16.60;4.40;;;;;;;22.65;55.74;98302.34;68053;1275;1016219;-65
2023/07/20 04:07:48;;;;;;;17.50;4.70;;;;;;;22.62;56.55;98305.21;67991;1273;1016282;-65
2023/07/20 04:11:10;;;;;;;17.00;4.50;;;;;;;22.64;56.14;98305.83;67881;1274;1016478;-64
2023/07/20 04:14:14;;;;;;;14.60;4.50;;;;;;;22.68;56.48;98304.92;67934;1274;1016160;-64
2023/07/20 04:17:17;;;;;;;15.40;4.50;;;;;;;22.91;55.91;98298.41;67977;1274;1016305;-65
2023/07/20 04:20:22;;;;;;;15.40;4.30;;;;;;;22.85;56.49;98301.58;67948;1274;1016724;-65
2023/07/20 04:23:25;;;;;;;15.40;4.40;;;;;;;22.87;56.84;98294.41;67934;1274;1016254;-65
2023/07/20 04:26:28;;;;;;;15.20;4.10;;;;;;;22.90;56.93;98286.69;67984;1274;1018026;-65
2023/07/20 04:29:31;;;;;;;16.60;4.30;;;;;;;23.01;56.98;98279.69;68013;1274;1016508;-65
2023/07/20 04:32:34;;;;;;;;;;;;;;;23.06;56.88;98280.16;68019;1274;1016489;-69
2023/07/20 04:35:38;;;;;;;18.90;4.50;;;;;;;22.92;57.53;98297.56;68035;1274;1016000;-69
2023/07/20 04:38:41;;;;;;;;;;;;;;;22.83;59.11;98311.63;68015;1274;1016576;-65
2023/07/20 04:41:43;;;;;;;16.30;4.20;;;;;;;22.66;60.18;98324.64;68027;1274;1016444;-65
2023/07/20 04:44:47;;;;;;;17.50;4.50;;;;;;;22.56;59.81;98311.12;68013;1274;1016467;-65
2023/07/20 04:47:51;;;;;;;;;;;;;;;22.62;59.59;98300.00;68014;1274;1016483;-65
2023/07/20 04:50:55;;;;;;;19.80;4.60;;;;;;;22.87;58.58;98289.59;68012;1274;1018519;-69
2023/07/20 04:53:58;;;;;;;15.90;4.50;;;;;;;22.96;58.99;98306.99;68030;1274;1019530;-64
2023/07/20 04:57:01;;;;;;;16.10;5.10;;;;;;;22.51;61.03;98320.28;67913;1274;1019357;-68
2023/07/20 05:00:04;;;;;;;16.70;4.70;;;;;;;22.88;59.72;98324.57;68003;1274;1016445;-69
2023/07/20 05:03:08;;;;;;;16.40;5.00;;;;;;;22.93;59.49;98316.10;67978;1274;1016255;-64
2023/07/20 05:06:10;;;;;;;;;;;;;;;22.94;58.84;98299.84;68027;1274;1016279;-65
2023/07/20 05:09:13;;;;;;;16.30;4.40;;;;;;;23.12;59.18;98298.48;68027;1274;1016431;-65
2023/07/20 05:12:16;;;;;;;14.70;4.40;;;;;;;23.72;57.24;98291.56;67946;1274;1018773;-64
2023/07/20 05:15:19;;;;;;;15.80;4.80;;;;;;;24.07;56.64;98293.31;68026;1274;1018127;-68
2023/07/20 05:18:22;;;;;;;17.30;5.20;;;;;;;24.25;56.09;98294.41;67941;1274;1016004;-65
2023/07/20 05:21:25;;;;;;;18.10;4.60;;;;;;;24.39;56.07;98287.54;67954;1274;1016491;-69
2023/07/20 05:24:28;;;;;;;19.00;5.00;;;;;;;24.52;56.45;98286.52;67972;1274;1018871;-64
2023/07/20 05:27:31;;;;;;;17.00;4.90;;;;;;;24.75;56.26;98289.33;67998;1274;1016671;-69
2023/07/20 05:30:33;;;;;;;15.40;4.50;;;;;;;25.17;55.51;98278.00;67958;1274;1016278;-64
2023/07/20 05:33:47;;;;;;;16.80;4.50;;;;;;;25.10;55.44;98291.51;68026;1274;1016375;-65
2023/07/20 05:36:49;;;;;;;13.00;4.10;;;;;;;25.14;55.24;98297.09;68024;1274;1017103;-65
2023/07/20 05:39:52;;;;;;;17.40;4.70;;;;;;;25.06;54.82;98299.83;68002;1274;1016470;-65
2023/07/20 05:42:56;;;;;;;19.20;4.50;;;;;;;25.09;56.19;98293.02;68032;1274;1018856;-65
2023/07/20 05:46:00;;;;;;;11.80;3.80;;;;;;;25.58;55.62;98294.02;67967;1274;1016373;-64
2023/07/20 05:49:03;;;;;;;16.80;4.60;;;;;;;26.04;53.76;98294.52;67979;1274;1016965;-65
2023/07/20 05:52:06;;;;;;;16.40;4.60;;;;;;;26.19;53.53;98290.89;67992;1274;1016352;-65
2023/07/20 05:55:09;;;;;;;16.50;5.10;;;;;;;26.27;52.74;98291.17;68025;1274;1015814;-65
2023/07/20 05:58:11;;;;;;;15.20;4.60;;;;;;;26.32;52.25;98293.27;68027;1274;1015936;-65
2023/07/20 06:01:14;;;;;;;17.10;4.80;;;;;;;25.87;52.91;98300.32;67951;1274;1015966;-65
2023/07/20 06:04:18;;;;;;;17.50;5.20;;;;;;;25.55;54.21;98307.33;67991;1274;1016351;-65
2023/07/20 06:07:21;;;;;;;14.90;4.70;;;;;;;25.21;55.06;98308.61;68043;1274;1016126;-65
2023/07/20 06:10:24;;;;;;;15.20;4.50;;;;;;;24.80;57.03;98316.40;67957;1274;1016345;-65
2023/07/20 06:13:28;;;;;;;17.60;4.80;;;;;;;24.51;57.98;98327.65;68006;1274;1016400;-65
2023/07/20 06:16:31;;;;;;;15.60;4.90;;;;;;;24.35;57.92;98324.20;68002;1274;1016467;-65
2023/07/20 06:19:34;;;;;;;18.10;5.30;;;;;;;24.20;58.37;98331.30;67945;1274;1016469;-68
2023/07/20 06:22:38;;;;;;;17.10;4.70;;;;;;;24.48;58.26;98326.93;67951;1274;1016266;-66
2023/07/20 06:25:40;;;;;;;18.10;5.50;;;;;;;24.69;57.50;98323.19;67982;1251;1016445;-66
2023/07/20 06:28:44;;;;;;;14.00;4.60;;;;;;;25.04;55.86;98321.90;67972;1275;1016416;-66
2023/07/20 06:31:47;;;;;;;11.90;3.80;;;;;;;25.01;55.93;98316.83;67989;1274;1016438;-65
2023/07/20 06:34:50;;;;;;;11.90;3.80;;;;;;;24.71;55.97;98322.23;65455;1274;5372650;-66
2023/07/20 06:37:52;;;;;;;12.40;3.50;;;;;;;24.57;55.55;98323.26;67913;1274;1016176;-66
2023/07/20 06:40:56;;;;;;;13.40;3.90;;;;;;;24.59;55.49;98321.17;67978;1251;1018165;-66
2023/07/20 06:43:59;;;;;;;14.70;4.40;;;;;;;24.87;56.31;98324.98;68006;1274;1016372;-66
2023/07/20 06:47:03;;;;;;;14.00;4.10;;;;;;;25.30;55.19;98322.31;67981;1274;1016423;-65
2023/07/20 06:50:06;;;;;;;12.50;3.80;;;;;;;25.81;53.07;98318.98;67969;1274;1016331;-66
2023/07/20 06:53:09;;;;;;;14.60;3.90;;;;;;;26.05;52.19;98315.40;67985;1274;1016004;-65
2023/07/20 06:56:12;;;;;;;13.60;3.80;;;;;;;26.42;53.30;98305.46;67940;1274;1015881;-66
2023/07/20 06:59:15;;;;;;;13.80;3.80;;;;;;;27.29;51.29;98303.72;67920;1274;1016294;-66
2023/07/20 07:02:18;;;;;;;13.60;4.10;;;;;;;27.97;49.75;98305.39;67972;1274;1016190;-66
2023/07/20 07:05:21;;;;;;;13.10;3.60;;;;;;;27.88;50.25;98302.20;67986;1274;1016395;-66
2023/07/20 07:08:24;;;;;;;9.70;3.30;;;;;;;28.27;50.89;98301.09;67924;1274;1018067;-66
2023/07/20 07:11:27;;;;;;;12.80;3.60;;;;;;;28.97;50.12;98300.02;67943;1274;1016144;-66
2023/07/20 07:14:30;;;;;;;11.70;3.50;;;;;;;29.31;49.17;98297.02;67992;1274;1016436;-66
2023/07/20 07:17:34;;;;;;;9.10;2.90;;;;;;;29.58;47.22;98293.58;68000;1274;1019167;-66
2023/07/20 07:20:36;;;;;;;10.50;3.30;;;;;;;29.49;46.59;98294.63;67994;1274;1016986;-66
2023/07/20 07:23:39;;;;;;;11.10;3.20;;;;;;;29.61;45.00;98299.85;67972;1274;1016409;-66
2023/07/20 07:26:42;;;;;;;11.50;3.10;;;;;;;29.55;43.84;98301.96;67985;1274;1016829;-66
2023/07/20 07:29:45;;;;;;;9.20;3.00;;;;;;;29.55;44.94;98298.73;68016;1274;1016457;-66
2023/07/20 07:32:48;;;;;;;12.40;3.30;;;;;;;29.66;44.56;98302.52;67961;1274;1016400;-66
2023/07/20 07:35:51;;;;;;;7.00;2.70;;;;;;;29.55;45.02;98307.48;68052;1274;1015776;-66
2023/07/20 07:38:54;;;;;;;11.50;2.90;;;;;;;28.95;43.37;98313.42;68005;1274;1016846;-66
2023/07/20 07:41:57;;;;;;;9.30;3.00;;;;;;;28.80;44.64;98312.44;67965;1274;1016285;-67
2023/07/20 07:44:59;;;;;;;11.60;3.20;;;;;;;28.19;45.82;98320.41;67983;1274;1016400;-66
2023/07/20 07:48:03;;;;;;;12.50;3.00;;;;;;;28.33;45.27;98320.66;68011;1274;1016183;-67
2023/07/20 07:51:06;;;;;;;8.30;2.90;;;;;;;28.29;45.85;98319.86;68016;1274;1015919;-67
2023/07/20 07:54:17;;;;;;;9.20;2.90;;;;;;;28.93;45.86;98321.35;68016;1274;1016299;-66
2023/07/20 07:57:20;;;;;;;10.00;3.00;;;;;;;29.10;45.15;98320.52;67967;1274;1016282;-66
2023/07/20 08:00:23;;;;;;;9.40;3.00;;;;;;;28.99;44.22;98319.36;67992;1274;1016495;-66
2023/07/20 08:03:27;;;;;;;10.10;2.60;;;;;;;28.40;44.68;98322.25;67992;1274;1016335;-66
2023/07/20 08:06:31;;;;;;;8.80;2.80;;;;;;;28.50;44.95;98318.09;67979;1274;1016230;-66
2023/07/20 08:09:35;;;;;;;8.10;2.20;;;;;;;28.69;44.70;98314.90;67987;1274;1016036;-68
2023/07/20 08:12:38;;;;;;;7.50;2.30;;;;;;;29.14;43.33;98328.89;67977;1274;1015766;-67
2023/07/20 08:15:41;;;;;;;7.20;2.40;;;;;;;28.93;42.84;98331.92;67963;1274;1016375;-67
2023/07/20 08:18:45;;;;;;;6.70;2.50;;;;;;;28.73;44.07;98333.71;67971;1274;1016462;-66
2023/07/20 08:21:48;;;;;;;9.50;3.00;;;;;;;28.58;44.38;98330.60;68009;1274;1016346;-67
2023/07/20 08:24:52;;;;;;;11.30;2.90;;;;;;;28.38;44.77;98327.79;67996;1275;1016425;-67
2023/07/20 08:27:54;;;;;;;11.60;2.90;;;;;;;28.42;44.46;98328.41;67952;1274;1016410;-66
2023/07/20 08:30:57;;;;;;;8.00;2.90;;;;;;;28.25;45.22;98330.55;68019;1274;1016461;-67
2023/07/20 08:34:01;;;;;;;7.80;2.80;;;;;;;27.71;45.60;98337.90;68045;1274;1016262;-68
2023/07/20 08:37:04;;;;;;;9.00;2.80;;;;;;;27.36;46.27;98340.23;68002;1274;1016178;-68
2023/07/20 08:40:09;;;;;;;9.70;3.20;;;;;;;27.32;47.07;98334.69;67941;1274;1016446;-67
2023/07/20 08:43:12;;;;;;;13.70;3.40;;;;;;;27.94;46.26;98337.45;67977;1274;1016360;-67
2023/07/20 08:46:16;;;;;;;13.90;3.30;;;;;;;28.35;45.93;98343.00;68002;1274;1016112;-68
2023/07/20 08:49:19;;;;;;;11.70;3.40;;;;;;;28.82;46.21;98338.77;68034;1274;1016733;-66
2023/07/20 08:52:21;;;;;;;10.70;3.40;;;;;;;28.77;44.54;98337.36;68005;1274;1016458;-66
2023/07/20 08:55:25;;;;;;;10.80;3.40;;;;;;;28.14;45.37;98334.79;68004;1274;1016361;-68
2023/07/20 08:58:28;;;;;;;9.40;3.10;;;;;;;27.78;46.26;98336.29;67935;1274;1016045;-66
2023/07/20 09:01:32;;;;;;;10.70;3.20;;;;;;;27.51;46.70;98338.77;67981;1274;1016732;-66
2023/07/20 09:04:36;;;;;;;11.30;3.30;;;;;;;27.62;46.42;98343.30;68033;1274;1016255;-67
2023/07/20 09:07:39;;;;;;;12.80;3.50;;;;;;;28.02;46.26;98343.73;67985;1274;1016307;-66
2023/07/20 09:10:42;;;;;;;11.60;3.50;;;;;;;28.40;46.63;98339.05;67969;1274;1016345;-67
2023/07/20 09:13:45;;;;;;;10.80;3.30;;;;;;;29.13;44.65;98340.02;68031;1275;1016566;-67
2023/07/20 09:16:49;;;;;;;11.40;3.60;;;;;;;29.02;44.39;98339.21;68036;1274;1016452;-66
2023/07/20 09:19:53;;;;;;;12.10;3.20;;;;;;;28.79;44.05;98345.69;68015;1274;1016401;-66
2023/07/20 09:22:56;;;;;;;12.20;3.40;;;;;;;28.29;44.35;98349.06;67976;1274;1016473;-68
2023/07/20 09:25:59;;;;;;;11.80;3.40;;;;;;;28.02;44.36;98357.84;68021;1274;1016332;-65
2023/07/20 09:29:02;;;;;;;14.40;3.40;;;;;;;28.36;43.97;98355.98;68008;1272;1016527;-68
2023/07/20 09:32:05;;;;;;;10.20;3.30;;;;;;;28.80;43.93;98360.23;67954;1275;1016055;-66
2023/07/20 09:35:09;;;;;;;13.10;3.40;;;;;;;28.31;43.26;98378.15;68020;1275;1016203;-65
2023/07/20 09:38:11;;;;;;;11.80;3.40;;;;;;;28.12;43.21;98372.34;67968;1274;1016384;-65
2023/07/20 09:41:14;;;;;;;11.90;3.40;;;;;;;28.18;43.43;98375.73;68027;1274;1016367;-67
2023/07/20 09:44:17;;;;;;;11.00;3.30;;;;;;;28.26;42.85;98379.33;68003;1274;1016699;-67
2023/07/20 09:47:20;;;;;;;11.80;3.50;;;;;;;28.28;43.66;98371.42;67969;1274;1016227;-68
2023/07/20 09:50:23;;;;;;;9.30;3.30;;;;;;;28.52;42.81;98378.87;67960;1274;1019603;-68
2023/07/20 09:53:26;;;;;;;10.90;3.50;;;;;;;28.64;42.23;98374.55;67974;1274;1016728;-68
2023/07/20 09:56:29;;;;;;;9.50;3.30;;;;;;;28.67;41.82;98379.30;67983;1274;1018150;-66
2023/07/20 09:59:32;;;;;;;11.30;3.30;;;;;;;29.45;41.33;98376.67;67989;1274;1016365;-66
2023/07/20 10:02:35;;;;;;;11.40;3.30;;;;;;;30.14;40.15;98370.48;68047;1274;1016170;-65
2023/07/20 10:05:38;;;;;;;9.80;3.20;;;;;;;30.28;38.97;98373.59;67974;1274;1016407;-68
2023/07/20 10:08:49;;;;;;;11.90;3.40;;;;;;;30.17;38.42;98371.11;68023;1274;1016042;-65
2023/07/20 10:11:52;;;;;;;13.20;3.50;;;;;;;29.88;38.86;98376.20;67964;1274;1016239;-66
2023/07/20 10:14:56;;;;;;;12.40;3.90;;;;;;;29.71;39.23;98378.82;68017;1275;1016261;-68
2023/07/20 10:17:59;;;;;;;10.10;3.30;;;;;;;29.30;40.79;98380.80;67997;1274;1016371;-65
2023/07/20 10:21:03;;;;;;;13.10;3.80;;;;;;;29.95;40.07;98381.30;68003;1274;1016578;-66
2023/07/20 10:24:07;;;;;;;13.30;4.00;;;;;;;29.85;38.11;98384.88;67991;1274;1016420;-67
2023/07/20 10:27:10;;;;;;;10.90;3.70;;;;;;;30.17;38.81;98378.96;67966;1274;1016472;-68
2023/07/20 10:30:13;;;;;;;11.30;3.80;;;;;;;30.61;37.25;98380.14;68028;1275;1016426;-68
2023/07/20 10:33:17;;;;;;;11.70;3.60;;;;;;;30.41;38.46;98377.70;67973;1274;1016319;-68
2023/07/20 10:36:21;;;;;;;14.60;4.20;;;;;;;30.55;38.40;98377.36;68005;1274;1017677;-67
2023/07/20 10:39:24;;;;;;;12.70;3.80;;;;;;;30.87;37.81;98369.20;68005;1274;1018511;-67
2023/07/20 10:42:28;;;;;;;12.50;3.80;;;;;;;30.75;36.85;98374.19;68030;1274;1016278;-68
2023/07/20 10:45:31;;;;;;;13.10;3.90;;;;;;;30.80;36.35;98370.73;67988;1275;1016201;-66
2023/07/20 10:48:34;;;;;;;12.00;4.40;;;;;;;30.49;36.67;98369.70;68027;1275;1016920;-68
2023/07/20 10:51:37;;;;;;;13.20;4.00;;;;;;;30.73;36.90;98367.83;68003;1251;1016273;-67
2023/07/20 10:54:40;;;;;;;11.60;3.70;;;;;;;30.80;37.59;98370.38;68052;1274;1016297;-68
2023/07/20 10:57:43;;;;;;;14.20;4.20;;;;;;;31.01;37.37;98371.91;67967;1274;1016478;-68
2023/07/20 11:00:46;;;;;;;15.50;4.40;;;;;;;30.78;37.38;98371.40;68033;1274;1016222;-68
2023/07/20 11:03:50;;;;;;;10.90;4.10;;;;;;;31.16;37.16;98363.36;67969;1275;1016450;-66
2023/07/20 11:06:53;;;;;;;12.50;4.20;;;;;;;31.45;35.63;98372.69;67984;1274;1016444;-69
2023/07/20 11:09:56;;;;;;;11.40;3.80;;;;;;;31.65;36.15;98370.56;67991;1274;1016159;-66
2023/07/20 11:12:59;;;;;;;10.00;3.30;;;;;;;31.01;35.26;98368.21;68000;1274;1016581;-70
2023/07/20 11:16:03;;;;;;;14.40;4.00;;;;;;;30.22;36.15;98369.75;68017;1274;1016348;-67
2023/07/20 11:19:06;;;;;;;13.40;3.60;;;;;;;30.25;37.09;98367.03;68010;1274;1016328;-68
2023/07/20 11:22:09;;;;;;;9.90;3.50;;;;;;;30.94;36.23;98368.00;67972;1274;1016349;-69
2023/07/20 11:25:12;;;;;;;12.60;3.60;;;;;;;30.29;36.29;98368.39;68006;1274;1016468;-66
2023/07/20 11:28:16;;;;;;;13.10;3.70;;;;;;;30.26;36.45;98361.55;68047;1275;1016471;-67
2023/07/20 11:31:20;;;;;;;12.20;3.50;;;;;;;30.80;34.45;98356.68;68015;1274;1016753;-67
2023/07/20 11:34:23;;;;;;;12.80;3.80;;;;;;;31.12;35.43;98350.44;67997;1274;1016460;-67
2023/07/20 11:37:26;;;;;;;9.60;3.20;;;;;;;31.41;35.25;98346.00;68056;1274;1016042;-68
2023/07/20 11:40:30;;;;;;;9.20;3.10;;;;;;;31.66;35.26;98345.17;61339;1275;2015612;-67
2023/07/20 11:43:33;;;;;;;11.80;3.20;;;;;;;31.34;34.14;98350.23;52276;1274;2016167;-68
2023/07/20 11:46:36;;;;;;;7.70;2.70;;;;;;;31.40;33.44;98352.73;51385;1275;2016006;-67
2023/07/20 11:49:39;;;;;;;9.80;3.00;;;;;;;31.39;32.71;98360.11;51513;1274;2016363;-66
2023/07/20 11:52:42;;;;;;;9.60;2.90;;;;;;;32.08;32.40;98341.42;49884;1275;2016504;-67
2023/07/20 11:55:47;;;;;;;8.50;2.60;;;;;;;32.11;33.01;98350.39;49238;1274;2015819;-68
2023/07/20 11:58:49;;;;;;;9.90;2.80;;;;;;;31.64;32.62;98350.29;50786;1275;2015725;-67
2023/07/20 12:01:56;;;;;;;9.30;3.00;;;;;;;31.53;33.44;98348.71;49204;1275;2016426;-69
2023/07/20 12:05:08;;;;;;;5.50;2.50;;;;;;;31.52;31.93;98346.86;50723;1274;2016408;-69
2023/07/20 12:08:11;;;;;;;6.30;2.50;;;;;;;31.87;31.38;98345.73;50603;1275;2018736;-68
2023/07/20 12:11:15;;;;;;;8.10;2.60;;;;;;;31.45;32.34;98347.85;52246;1275;2015783;-67
2023/07/20 12:14:19;;;;;;;7.60;2.50;;;;;;;31.14;32.18;98352.04;49985;1274;2018464;-69
2023/07/20 12:17:23;;;;;;;9.00;2.60;;;;;;;31.47;32.32;98356.03;50760;1274;2016518;-69
2023/07/20 12:20:27;;;;;;;6.70;2.30;;;;;;;31.15;33.09;98351.98;50600;1275;2016167;-70
2023/07/20 12:23:30;;;;;;;7.90;2.80;;;;;;;30.91;33.63;98352.52;52269;1274;2016076;-69
2023/07/20 12:26:34;;;;;;;9.20;2.70;;;;;;;30.72;33.02;98355.20;50750;1274;2016162;-69
2023/07/20 12:29:37;;;;;;;6.50;2.80;;;;;;;30.19;33.62;98360.40;50630;1275;2016131;-68
2023/07/20 12:32:41;;;;;;;10.20;2.60;;;;;;;29.72;33.70;98370.04;51462;1274;2015875;-69
2023/07/20 12:35:45;;;;;;;9.00;2.70;;;;;;;29.76;33.92;98365.62;52282;1275;2016170;-69
2023/07/20 12:38:49;;;;;;;10.60;2.90;;;;;;;30.03;34.42;98365.63;49098;1276;2015897;-70
2023/07/20 12:41:53;;;;;;;10.80;3.00;;;;;;;29.50;36.21;98364.02;52255;1275;2018191;-65
2023/07/20 12:44:56;;;;;;;14.10;3.40;;;;;;;29.15;38.20;98361.61;52257;1275;2016274;-67
2023/07/20 12:48:00;;;;;;;7.50;3.00;;;;;;;29.37;38.44;98363.84;52239;1275;2016131;-66
2023/07/20 12:51:04;;;;;;;11.60;3.10;;;;;;;29.34;39.02;98365.08;49220;1276;2015959;-66
2023/07/20 12:54:08;;;;;;;9.40;3.00;;;;;;;29.46;40.02;98359.89;68011;1276;1016393;-69
2023/07/20 12:57:11;;;;;;;10.30;2.90;;;;;;;30.48;39.63;98354.55;68036;1276;1016455;-67
2023/07/20 13:00:15;;;;;;;7.50;2.60;;;;;;;31.46;37.03;98347.23;68001;1275;1016460;-66
2023/07/20 13:03:19;;;;;;;10.30;3.20;;;;;;;31.31;36.28;98346.00;67989;1275;1016214;-66
2023/07/20 13:06:25;;;;;;;9.20;2.50;;;;;;;31.08;36.97;98343.27;68243;1276;1016423;-66
2023/07/20 13:09:28;;;;;;;10.50;2.70;;;;;;;30.99;36.18;98343.38;67989;1275;1016580;-69
2023/07/20 13:12:31;;;;;;;9.80;2.80;;;;;;;31.77;35.75;98347.39;67992;1275;1016523;-67
2023/07/20 13:15:34;;;;;;;7.40;2.50;;;;;;;32.41;34.23;98349.95;67937;1275;1016084;-68
2023/07/20 13:18:37;;;;;;;7.90;2.40;;;;;;;32.37;32.89;98344.73;67998;1275;1017071;-66
2023/07/20 13:21:40;;;;;;;9.70;2.10;;;;;;;32.31;33.34;98355.73;67976;1275;1018582;-68
2023/07/20 13:24:43;;;;;;;6.20;2.30;;;;;;;32.31;33.19;98355.41;68026;1275;1016434;-68
2023/07/20 13:27:46;;;;;;;6.50;2.30;;;;;;;31.55;33.66;98357.63;68011;1275;1016471;-66
2023/07/20 13:30:49;;;;;;;9.60;2.40;;;;;;;30.43;34.15;98367.64;68005;1275;1018664;-67
2023/07/20 13:33:56;;;;;;;15.80;2.90;;;;;;;29.07;37.56;98428.27;68031;1275;1016567;-69
2023/07/20 13:36:59;;;;;;;8.30;2.10;;;;;;;27.54;40.26;98439.73;68026;1275;1018169;-66
2023/07/20 13:40:03;;;;;;;9.50;2.00;;;;;;;26.46;40.19;98406.10;68020;1275;1016312;-66
2023/07/20 13:43:06;;;;;;;9.00;1.90;;;;;;;26.08;40.38;98400.98;68021;1276;1016361;-71
2023/07/20 13:46:08;;;;;;;10.00;2.20;;;;;;;26.08;41.29;98394.73;68012;1275;1019425;-65
2023/07/20 13:49:12;;;;;;;10.60;2.60;;;;;;;26.40;43.08;98390.23;67958;1275;1016482;-67
2023/07/20 13:52:15;;;;;;;11.60;2.20;;;;;;;27.50;43.06;98381.05;68004;1264;1016435;-70
2023/07/20 13:55:18;;;;;;;8.80;2.10;;;;;;;28.59;41.60;98381.25;67987;1275;1016478;-66
2023/07/20 13:58:21;;;;;;;6.60;2.40;;;;;;;29.40;41.12;98376.75;68007;1275;1015985;-65